Time,TemperatureF,DewpointF,PressureIn,WindDirection,WindDirectionDegrees,WindSpeedMPH,WindSpeedGustMPH,Humidity,HourlyPrecipIn,Conditions,Clouds,dailyrainin,SoftwareType,DateUTC
2013-08-14 00:05:00,54.5,49.0,30.06,NNE,28,1.0,2.0,81,0.00,,,0.00,weatherlink.com 1.10,2013-08-14 04:05:00,
2013-08-14 00:20:00,53.9,48.0,30.07,NNE,14,0.0,1.0,81,0.00,,,0.00,weatherlink.com 1.10,2013-08-14 04:20:00,
2013-08-14 00:35:00,53.6,50.0,30.07,NNE,22,1.0,1.0,86,0.00,,,0.00,weatherlink.com 1.10,2013-08-14 04:35:00,
2013-08-14 00:50:00,53.7,49.0,30.07,North,5,1.0,2.0,85,0.00,,,0.00,weatherlink.com 1.10,2013-08-14 04:50:00,
2013-08-14 01:05:00,53.3,50.0,30.07,North,5,1.0,2.0,87,0.00,,,0.00,weatherlink.com 1.10,2013-08-14 05:05:00,
2013-08-14 01:20:00,52.8,48.0,30.08,North,5,0.0,1.0,84,0.00,,,0.00,weatherlink.com 1.10,2013-08-14 05:20:00,
2013-08-14 01:35:00,52.5,49.0,30.08,North,5,0.0,1.0,86,0.00,,,0.00,weatherlink.com 1.10,2013-08-14 05:35:00,
2013-08-14 01:50:00,52.2,49.0,30.08,North,5,0.0,2.0,88,0.00,,,0.00,weatherlink.com 1.10,2013-08-14 05:50:00,
2013-08-14 02:05:00,52.0,49.0,30.08,WSW,244,1.0,2.0,88,0.00,,,0.00,weatherlink.com 1.10,2013-08-14 06:05:00,
2013-08-14 02:20:00,51.7,48.0,30.08,North,355,1.0,3.0,88,0.00,,,0.00,weatherlink.com 1.10,2013-08-14 06:20:00,
2013-08-14 02:35:00,51.7,47.0,30.08,NNW,331,0.0,3.0,85,0.00,,,0.00,weatherlink.com 1.10,2013-08-14 06:35:00,
2013-08-14 02:50:00,51.2,47.0,30.08,NNW,333,1.0,6.0,86,0.00,,,0.00,weatherlink.com 1.10,2013-08-14 06:50:00,
2013-08-14 03:06:00,51.1,47.0,30.08,NNW,333,1.0,5.0,87,0.00,,,0.00,weatherlink.com 1.10,2013-08-14 07:06:00,
2013-08-14 03:21:00,51.0,48.0,30.08,West,267,0.0,2.0,89,0.00,,,0.00,weatherlink.com 1.10,2013-08-14 07:21:00,
2013-08-14 03:35:00,50.6,47.0,30.09,WSW,242,1.0,2.0,88,0.00,,,0.00,weatherlink.com 1.10,2013-08-14 07:35:00,
2013-08-14 03:50:00,49.9,47.0,30.08,NW,325,2.0,2.0,89,0.00,,,0.00,weatherlink.com 1.10,2013-08-14 07:50:00,
2013-08-14 04:05:00,50.1,48.0,30.08,NW,312,1.0,3.0,91,0.00,,,0.00,weatherlink.com 1.10,2013-08-14 08:05:00,
2013-08-14 04:20:00,49.7,46.0,30.09,NE,51,0.0,4.0,88,0.00,,,0.00,weatherlink.com 1.10,2013-08-14 08:20:00,
2013-08-14 04:35:00,49.8,46.0,30.09,NNW,327,0.0,4.0,88,0.00,,,0.00,weatherlink.com 1.10,2013-08-14 08:35:00,
2013-08-14 04:51:00,49.9,47.0,30.09,West,266,0.0,2.0,91,0.00,,,0.00,weatherlink.com 1.10,2013-08-14 08:51:00,
2013-08-14 05:06:00,49.5,46.0,30.09,West,261,0.0,2.0,89,0.00,,,0.00,weatherlink.com 1.10,2013-08-14 09:06:00,
2013-08-14 05:21:00,48.9,46.0,30.10,NNW,338,0.0,2.0,89,0.00,,,0.00,weatherlink.com 1.10,2013-08-14 09:21:00,
2013-08-14 05:36:00,48.6,46.0,30.10,NNW,338,0.0,1.0,90,0.00,,,0.00,weatherlink.com 1.10,2013-08-14 09:36:00,
2013-08-14 05:51:00,48.8,47.0,30.11,SSW,196,0.0,4.0,93,0.00,,,0.00,weatherlink.com 1.10,2013-08-14 09:51:00,
2013-08-14 06:06:00,48.6,46.0,30.11,North,5,0.0,4.0,91,0.00,,,0.00,weatherlink.com 1.10,2013-08-14 10:06:00,
2013-08-14 06:21:00,48.7,47.0,30.11,WSW,254,0.0,2.0,93,0.00,,,0.00,weatherlink.com 1.10,2013-08-14 10:21:00,
2013-08-14 06:36:00,48.9,46.0,30.12,NNE,24,0.0,6.0,91,0.00,,,0.00,weatherlink.com 1.10,2013-08-14 10:36:00,
2013-08-14 06:51:00,49.2,47.0,30.12,NNE,12,2.0,3.0,92,0.00,,,0.00,weatherlink.com 1.10,2013-08-14 10:51:00,
2013-08-14 07:06:00,49.2,47.0,30.13,NW,325,0.0,3.0,92,0.00,,,0.00,weatherlink.com 1.10,2013-08-14 11:06:00,
2013-08-14 07:21:00,50.0,47.0,30.13,North,355,1.0,3.0,89,0.00,,,0.00,weatherlink.com 1.10,2013-08-14 11:21:00,
2013-08-14 07:36:00,51.2,48.0,30.14,NW,314,2.0,5.0,87,0.00,,,0.00,weatherlink.com 1.10,2013-08-14 11:36:00,
2013-08-14 07:51:00,52.1,48.0,30.14,NNE,33,2.0,5.0,86,0.00,,,0.00,weatherlink.com 1.10,2013-08-14 11:51:00,
2013-08-14 08:06:00,53.2,49.0,30.14,NNE,21,2.0,4.0,85,0.00,,,0.00,weatherlink.com 1.10,2013-08-14 12:06:00,
2013-08-14 08:22:00,53.6,49.0,30.15,North,9,7.0,9.0,85,0.00,,,0.00,weatherlink.com 1.10,2013-08-14 12:22:00,
2013-08-14 08:40:00,54.3,50.0,30.15,NNW,348,1.0,7.0,84,0.00,,,0.00,weatherlink.com 1.10,2013-08-14 12:40:00,
2013-08-14 08:51:00,55.8,50.0,30.15,NNW,336,1.0,6.0,82,0.00,,,0.00,weatherlink.com 1.10,2013-08-14 12:51:00,
2013-08-14 09:06:00,56.2,52.0,30.16,North,11,1.0,6.0,84,0.00,,,0.00,weatherlink.com 1.10,2013-08-14 13:06:00,
2013-08-14 09:21:00,57.1,52.0,30.16,NE,44,3.0,8.0,83,0.00,,,0.00,weatherlink.com 1.10,2013-08-14 13:21:00,
2013-08-14 09:36:00,58.2,52.0,30.16,WSW,255,2.0,8.0,79,0.00,,,0.00,weatherlink.com 1.10,2013-08-14 13:36:00,
2013-08-14 09:51:00,58.5,52.0,30.15,West,267,3.0,10.0,79,0.00,,,0.00,weatherlink.com 1.10,2013-08-14 13:51:00,
2013-08-14 10:06:00,59.3,52.0,30.16,NNW,345,4.0,9.0,78,0.00,,,0.00,weatherlink.com 1.10,2013-08-14 14:06:00,
2013-08-14 10:21:00,60.4,52.0,30.16,ENE,62,1.0,8.0,75,0.00,,,0.00,weatherlink.com 1.10,2013-08-14 14:21:00,
2013-08-14 10:36:00,61.0,52.0,30.17,North,5,4.0,10.0,72,0.00,,,0.00,weatherlink.com 1.10,2013-08-14 14:36:00,
2013-08-14 10:51:00,61.5,52.0,30.17,NNE,31,4.0,6.0,70,0.00,,,0.00,weatherlink.com 1.10,2013-08-14 14:51:00,
2013-08-14 11:07:00,62.3,51.0,30.17,North,5,5.0,9.0,67,0.00,,,0.00,weatherlink.com 1.10,2013-08-14 15:07:00,
2013-08-14 11:22:00,62.9,52.0,30.17,ESE,113,1.0,12.0,67,0.00,,,0.00,weatherlink.com 1.10,2013-08-14 15:22:00,
2013-08-14 11:37:00,63.4,52.0,30.17,NE,39,2.0,9.0,67,0.00,,,0.00,weatherlink.com 1.10,2013-08-14 15:37:00,
2013-08-14 12:22:00,63.8,50.0,30.17,West,277,1.0,9.0,61,0.00,,,0.00,weatherlink.com 1.10,2013-08-14 16:22:00,
2013-08-14 12:37:00,65.3,52.0,30.17,North,11,3.0,11.0,62,0.00,,,0.00,weatherlink.com 1.10,2013-08-14 16:37:00,
2013-08-14 13:07:00,65.9,52.0,30.17,North,11,5.0,7.0,61,0.00,,,0.00,weatherlink.com 1.10,2013-08-14 17:07:00,
2013-08-14 13:22:00,65.9,50.0,30.17,ENE,62,4.0,12.0,57,0.00,,,0.00,weatherlink.com 1.10,2013-08-14 17:22:00,
2013-08-14 13:37:00,66.9,50.0,30.17,NNE,24,5.0,8.0,54,0.00,,,0.00,weatherlink.com 1.10,2013-08-14 17:37:00,
2013-08-14 13:52:00,65.7,54.0,30.16,NE,38,4.0,7.0,65,0.00,,,0.00,weatherlink.com 1.10,2013-08-14 17:52:00,
2013-08-14 14:08:00,66.4,52.0,30.16,NNW,338,3.0,8.0,60,0.00,,,0.00,weatherlink.com 1.10,2013-08-14 18:08:00,
2013-08-14 15:07:00,67.7,53.0,30.15,NNW,337,5.0,7.0,60,0.00,,,0.00,weatherlink.com 1.10,2013-08-14 19:07:00,
2013-08-14 15:22:00,67.9,52.0,30.15,North,5,2.0,6.0,57,0.00,,,0.00,weatherlink.com 1.10,2013-08-14 19:22:00,
2013-08-14 15:37:00,66.8,50.0,30.15,NE,38,4.0,10.0,55,0.00,,,0.00,weatherlink.com 1.10,2013-08-14 19:37:00,
2013-08-14 15:52:00,67.7,51.0,30.15,SE,126,3.0,4.0,55,0.00,,,0.00,weatherlink.com 1.10,2013-08-14 19:52:00,
2013-08-14 16:07:00,66.7,51.0,30.15,NNE,33,3.0,4.0,57,0.00,,,0.00,weatherlink.com 1.10,2013-08-14 20:07:00,
2013-08-14 16:22:00,67.7,50.0,30.15,WSW,238,3.0,7.0,54,0.00,,,0.00,weatherlink.com 1.10,2013-08-14 20:22:00,
2013-08-14 16:37:00,69.6,51.0,30.15,NNE,24,2.0,5.0,51,0.00,,,0.00,weatherlink.com 1.10,2013-08-14 20:37:00,
2013-08-14 16:52:00,69.8,53.0,30.14,ENE,59,3.0,5.0,55,0.00,,,0.00,weatherlink.com 1.10,2013-08-14 20:52:00,
2013-08-14 17:22:00,70.0,50.0,30.14,SSW,213,2.0,5.0,49,0.00,,,0.00,weatherlink.com 1.10,2013-08-14 21:22:00,
2013-08-14 17:37:00,68.9,54.0,30.15,NW,319,0.0,1.0,60,0.00,,,0.00,weatherlink.com 1.10,2013-08-14 21:37:00,
2013-08-14 17:52:00,68.5,54.0,30.15,ENE,78,1.0,3.0,61,0.00,,,0.00,weatherlink.com 1.10,2013-08-14 21:52:00,
2013-08-14 18:07:00,68.7,55.0,30.14,WSW,257,1.0,3.0,61,0.00,,,0.00,weatherlink.com 1.10,2013-08-14 22:07:00,
2013-08-14 18:22:00,69.3,53.0,30.14,ENE,65,1.0,2.0,56,0.00,,,0.00,weatherlink.com 1.10,2013-08-14 22:22:00,
2013-08-14 18:37:00,71.0,54.0,30.14,NW,304,2.0,2.0,56,0.00,,,0.00,weatherlink.com 1.10,2013-08-14 22:37:00,
2013-08-14 18:52:00,70.7,52.0,30.14,SSW,208,0.0,3.0,51,0.00,,,0.00,weatherlink.com 1.10,2013-08-14 22:52:00,
2013-08-14 19:07:00,71.2,55.0,30.13,SSE,151,1.0,1.0,56,0.00,,,0.00,weatherlink.com 1.10,2013-08-14 23:07:00,
2013-08-14 19:22:00,68.3,54.0,30.14,SW,225,1.0,2.0,61,0.00,,,0.00,weatherlink.com 1.10,2013-08-14 23:22:00,
2013-08-14 19:37:00,66.9,54.0,30.14,SW,225,2.0,2.0,63,0.00,,,0.00,weatherlink.com 1.10,2013-08-14 23:37:00,
2013-08-14 19:52:00,66.2,54.0,30.14,SW,235,1.0,2.0,66,0.00,,,0.00,weatherlink.com 1.10,2013-08-14 23:52:00,
2013-08-14 20:07:00,65.6,56.0,30.14,SW,236,1.0,2.0,71,0.00,,,0.00,weatherlink.com 1.10,2013-08-15 00:07:00,
2013-08-14 20:22:00,64.3,57.0,30.14,SW,236,0.0,1.0,76,0.00,,,0.00,weatherlink.com 1.10,2013-08-15 00:22:00,
2013-08-14 20:37:00,63.1,57.0,30.14,SW,236,0.0,1.0,80,0.00,,,0.00,weatherlink.com 1.10,2013-08-15 00:37:00,
2013-08-14 20:52:00,61.4,56.0,30.14,SW,236,0.0,1.0,81,0.00,,,0.00,weatherlink.com 1.10,2013-08-15 00:52:00,
2013-08-14 21:08:00,60.4,56.0,30.14,SW,236,0.0,1.0,84,0.00,,,0.00,weatherlink.com 1.10,2013-08-15 01:08:00,
2013-08-14 21:23:00,59.3,55.0,30.14,SW,236,0.0,1.0,85,0.00,,,0.00,weatherlink.com 1.10,2013-08-15 01:23:00,
2013-08-14 21:38:00,58.5,54.0,30.15,SW,236,0.0,1.0,86,0.00,,,0.00,weatherlink.com 1.10,2013-08-15 01:38:00,
2013-08-14 21:53:00,57.8,54.0,30.16,SW,236,0.0,0.0,88,0.00,,,0.00,weatherlink.com 1.10,2013-08-15 01:53:00,
2013-08-14 22:08:00,57.6,55.0,30.16,SW,236,0.0,2.0,92,0.00,,,0.00,weatherlink.com 1.10,2013-08-15 02:08:00,
2013-08-14 22:23:00,57.3,55.0,30.16,SW,236,0.0,1.0,92,0.00,,,0.00,weatherlink.com 1.10,2013-08-15 02:23:00,
2013-08-14 22:38:00,56.8,54.0,30.16,SW,236,0.0,1.0,89,0.00,,,0.00,weatherlink.com 1.10,2013-08-15 02:38:00,
2013-08-14 22:53:00,56.3,54.0,30.16,SW,236,0.0,1.0,90,0.00,,,0.00,weatherlink.com 1.10,2013-08-15 02:53:00,
2013-08-14 23:08:00,55.6,53.0,30.16,SW,236,0.0,1.0,91,0.00,,,0.00,weatherlink.com 1.10,2013-08-15 03:08:00,
2013-08-14 23:23:00,55.4,54.0,30.16,SW,236,1.0,2.0,93,0.00,,,0.00,weatherlink.com 1.10,2013-08-15 03:23:00,
2013-08-14 23:38:00,55.5,54.0,30.16,SW,236,0.0,1.0,94,0.00,,,0.00,weatherlink.com 1.10,2013-08-15 03:38:00,
2013-08-14 23:53:00,55.1,53.0,30.16,SW,236,1.0,2.0,93,0.00,,,0.00,weatherlink.com 1.10,2013-08-15 03:53:00,